sensor_id;sensor_type;location;lat;lon;timestamp;P1;durP1;ratioP1;P2;durP2;ratioP2
8074;SDS011;4080;42.676;23.372;2023-07-31T00:01:38;4.03;;;3.73;;
8074;SDS011;4080;42.676;23.372;2023-07-31T00:04:04;3.80;;;3.50;;
8074;SDS011;4080;42.676;23.372;2023-07-31T00:06:31;3.73;;;3.43;;
8074;SDS011;4080;42.676;23.372;2023-07-31T00:08:58;4.37;;;3.83;;
8074;SDS011;4080;42.676;23.372;2023-07-31T00:11:24;4.03;;;3.73;;
8074;SDS011;4080;42.676;23.372;2023-07-31T00:13:53;4.47;;;4.07;;
8074;SDS011;4080;42.676;23.372;2023-07-31T00:16:20;4.43;;;3.90;;
8074;SDS011;4080;42.676;23.372;2023-07-31T00:18:48;4.27;;;3.87;;
8074;SDS011;4080;42.676;23.372;2023-07-31T00:21:15;3.97;;;3.67;;
8074;SDS011;4080;42.676;23.372;2023-07-31T00:23:42;4.00;;;3.70;;
8074;SDS011;4080;42.676;23.372;2023-07-31T00:26:08;4.10;;;3.70;;
8074;SDS011;4080;42.676;23.372;2023-07-31T00:28:35;4.40;;;3.97;;
8074;SDS011;4080;42.676;23.372;2023-07-31T00:31:03;4.57;;;4.17;;
8074;SDS011;4080;42.676;23.372;2023-07-31T00:33:31;4.30;;;4.00;;
8074;SDS011;4080;42.676;23.372;2023-07-31T00:35:58;4.40;;;4.10;;
8074;SDS011;4080;42.676;23.372;2023-07-31T00:38:24;4.20;;;3.80;;
8074;SDS011;4080;42.676;23.372;2023-07-31T00:40:51;4.13;;;3.83;;
8074;SDS011;4080;42.676;23.372;2023-07-31T00:43:18;3.80;;;3.50;;
8074;SDS011;4080;42.676;23.372;2023-07-31T00:45:44;5.13;;;4.10;;
8074;SDS011;4080;42.676;23.372;2023-07-31T00:48:13;4.27;;;3.90;;
8074;SDS011;4080;42.676;23.372;2023-07-31T00:50:39;4.30;;;4.00;;
8074;SDS011;4080;42.676;23.372;2023-07-31T00:53:07;5.10;;;4.60;;
8074;SDS011;4080;42.676;23.372;2023-07-31T00:55:34;4.93;;;4.43;;
8074;SDS011;4080;42.676;23.372;2023-07-31T00:58:00;5.33;;;4.83;;
8074;SDS011;4080;42.676;23.372;2023-07-31T01:00:27;5.40;;;4.90;;
8074;SDS011;4080;42.676;23.372;2023-07-31T01:02:54;5.83;;;5.33;;
8074;SDS011;4080;42.676;23.372;2023-07-31T01:05:24;5.63;;;5.20;;
8074;SDS011;4080;42.676;23.372;2023-07-31T01:08:01;6.33;;;5.73;;
8074;SDS011;4080;42.676;23.372;2023-07-31T01:10:35;6.07;;;5.50;;
8074;SDS011;4080;42.676;23.372;2023-07-31T01:13:07;7.70;;;6.90;;
8074;SDS011;4080;42.676;23.372;2023-07-31T01:15:35;6.50;;;5.90;;
8074;SDS011;4080;42.676;23.372;2023-07-31T01:18:01;8.20;;;7.50;;
8074;SDS011;4080;42.676;23.372;2023-07-31T01:20:29;9.80;;;8.90;;
8074;SDS011;4080;42.676;23.372;2023-07-31T01:23:08;9.87;;;8.97;;
8074;SDS011;4080;42.676;23.372;2023-07-31T01:25:53;11.13;;;10.23;;
8074;SDS011;4080;42.676;23.372;2023-07-31T01:28:25;10.73;;;9.83;;
8074;SDS011;4080;42.676;23.372;2023-07-31T01:30:59;12.33;;;11.23;;
8074;SDS011;4080;42.676;23.372;2023-07-31T01:33:27;12.93;;;11.83;;
8074;SDS011;4080;42.676;23.372;2023-07-31T01:35:55;13.53;;;12.23;;
8074;SDS011;4080;42.676;23.372;2023-07-31T01:38:23;13.17;;;12.03;;
8074;SDS011;4080;42.676;23.372;2023-07-31T01:40:51;13.80;;;12.50;;
8074;SDS011;4080;42.676;23.372;2023-07-31T01:43:20;13.37;;;12.10;;
8074;SDS011;4080;42.676;23.372;2023-07-31T01:45:46;14.10;;;12.90;;
8074;SDS011;4080;42.676;23.372;2023-07-31T01:48:13;13.83;;;12.67;;
8074;SDS011;4080;42.676;23.372;2023-07-31T01:50:40;15.00;;;13.40;;
8074;SDS011;4080;42.676;23.372;2023-07-31T01:53:06;15.50;;;14.17;;
8074;SDS011;4080;42.676;23.372;2023-07-31T01:55:33;16.23;;;14.73;;
8074;SDS011;4080;42.676;23.372;2023-07-31T01:58:00;17.27;;;15.60;;
8074;SDS011;4080;42.676;23.372;2023-07-31T02:00:28;16.67;;;15.13;;
8074;SDS011;4080;42.676;23.372;2023-07-31T02:02:55;17.20;;;15.70;;
8074;SDS011;4080;42.676;23.372;2023-07-31T02:05:21;16.90;;;15.33;;
8074;SDS011;4080;42.676;23.372;2023-07-31T02:07:48;18.93;;;17.17;;
8074;SDS011;4080;42.676;23.372;2023-07-31T02:10:15;19.30;;;17.50;;
8074;SDS011;4080;42.676;23.372;2023-07-31T02:12:42;18.43;;;16.83;;
8074;SDS011;4080;42.676;23.372;2023-07-31T02:15:09;20.03;;;18.13;;
8074;SDS011;4080;42.676;23.372;2023-07-31T02:17:37;19.67;;;17.63;;
8074;SDS011;4080;42.676;23.372;2023-07-31T02:20:04;20.70;;;18.60;;
8074;SDS011;4080;42.676;23.372;2023-07-31T02:22:32;21.07;;;19.07;;
8074;SDS011;4080;42.676;23.372;2023-07-31T02:24:58;20.87;;;19.07;;
8074;SDS011;4080;42.676;23.372;2023-07-31T02:27:25;21.37;;;19.47;;
8074;SDS011;4080;42.676;23.372;2023-07-31T02:29:52;19.30;;;17.60;;
8074;SDS011;4080;42.676;23.372;2023-07-31T02:32:19;20.50;;;18.50;;
8074;SDS011;4080;42.676;23.372;2023-07-31T02:34:47;19.87;;;17.97;;
8074;SDS011;4080;42.676;23.372;2023-07-31T02:37:14;20.73;;;18.77;;
8074;SDS011;4080;42.676;23.372;2023-07-31T02:39:40;21.47;;;19.47;;
8074;SDS011;4080;42.676;23.372;2023-07-31T02:42:07;21.83;;;19.50;;
8074;SDS011;4080;42.676;23.372;2023-07-31T02:44:34;21.47;;;19.37;;
8074;SDS011;4080;42.676;23.372;2023-07-31T02:47:00;22.60;;;20.30;;
8074;SDS011;4080;42.676;23.372;2023-07-31T02:49:28;21.03;;;19.13;;
8074;SDS011;4080;42.676;23.372;2023-07-31T02:51:56;19.70;;;17.80;;
8074;SDS011;4080;42.676;23.372;2023-07-31T02:54:23;22.00;;;20.00;;
8074;SDS011;4080;42.676;23.372;2023-07-31T02:56:49;21.30;;;19.23;;
8074;SDS011;4080;42.676;23.372;2023-07-31T02:59:16;22.13;;;20.20;;
8074;SDS011;4080;42.676;23.372;2023-07-31T03:01:43;23.53;;;21.13;;
8074;SDS011;4080;42.676;23.372;2023-07-31T03:04:10;21.87;;;19.87;;
8074;SDS011;4080;42.676;23.372;2023-07-31T03:06:36;22.97;;;20.97;;
8074;SDS011;4080;42.676;23.372;2023-07-31T03:09:04;22.23;;;20.13;;
8074;SDS011;4080;42.676;23.372;2023-07-31T03:11:31;22.63;;;20.60;;
8074;SDS011;4080;42.676;23.372;2023-07-31T03:13:58;21.37;;;19.37;;
8074;SDS011;4080;42.676;23.372;2023-07-31T03:16:24;22.30;;;20.00;;
8074;SDS011;4080;42.676;23.372;2023-07-31T03:18:51;22.43;;;20.33;;
8074;SDS011;4080;42.676;23.372;2023-07-31T03:21:18;23.10;;;20.90;;
8074;SDS011;4080;42.676;23.372;2023-07-31T03:23:44;23.13;;;20.93;;
8074;SDS011;4080;42.676;23.372;2023-07-31T03:26:12;21.43;;;19.43;;
8074;SDS011;4080;42.676;23.372;2023-07-31T03:28:39;22.53;;;20.40;;
8074;SDS011;4080;42.676;23.372;2023-07-31T03:31:06;22.77;;;20.77;;
8074;SDS011;4080;42.676;23.372;2023-07-31T03:33:33;22.30;;;20.20;;
8074;SDS011;4080;42.676;23.372;2023-07-31T03:36:00;23.17;;;21.03;;
8074;SDS011;4080;42.676;23.372;2023-07-31T03:38:27;24.10;;;21.90;;
8074;SDS011;4080;42.676;23.372;2023-07-31T03:40:53;22.97;;;20.87;;
8074;SDS011;4080;42.676;23.372;2023-07-31T03:43:21;22.50;;;20.40;;
8074;SDS011;4080;42.676;23.372;2023-07-31T03:45:48;22.73;;;20.73;;
8074;SDS011;4080;42.676;23.372;2023-07-31T03:48:15;23.93;;;21.73;;
8074;SDS011;4080;42.676;23.372;2023-07-31T03:50:42;24.13;;;21.77;;
8074;SDS011;4080;42.676;23.372;2023-07-31T03:53:09;23.33;;;21.13;;
8074;SDS011;4080;42.676;23.372;2023-07-31T03:55:36;23.40;;;21.10;;
8074;SDS011;4080;42.676;23.372;2023-07-31T03:58:02;23.37;;;21.20;;
8074;SDS011;4080;42.676;23.372;2023-07-31T04:00:30;23.70;;;21.40;;
8074;SDS011;4080;42.676;23.372;2023-07-31T04:02:57;24.13;;;21.70;;
8074;SDS011;4080;42.676;23.372;2023-07-31T04:05:24;23.17;;;20.97;;
8074;SDS011;4080;42.676;23.372;2023-07-31T04:07:51;24.97;;;22.47;;
8074;SDS011;4080;42.676;23.372;2023-07-31T04:10:17;25.13;;;22.73;;
8074;SDS011;4080;42.676;23.372;2023-07-31T04:12:44;25.30;;;22.67;;
8074;SDS011;4080;42.676;23.372;2023-07-31T04:15:11;25.53;;;23.03;;
8074;SDS011;4080;42.676;23.372;2023-07-31T04:17:39;24.90;;;22.40;;
8074;SDS011;4080;42.676;23.372;2023-07-31T04:20:06;23.50;;;21.20;;
8074;SDS011;4080;42.676;23.372;2023-07-31T04:22:33;25.67;;;23.07;;
8074;SDS011;4080;42.676;23.372;2023-07-31T04:25:00;26.93;;;24.33;;
8074;SDS011;4080;42.676;23.372;2023-07-31T04:27:26;26.10;;;23.40;;
8074;SDS011;4080;42.676;23.372;2023-07-31T04:29:53;26.80;;;24.10;;
8074;SDS011;4080;42.676;23.372;2023-07-31T04:32:20;26.00;;;23.50;;
8074;SDS011;4080;42.676;23.372;2023-07-31T04:34:48;26.00;;;23.50;;
8074;SDS011;4080;42.676;23.372;2023-07-31T04:37:15;25.70;;;22.63;;
8074;SDS011;4080;42.676;23.372;2023-07-31T04:39:41;25.47;;;22.50;;
8074;SDS011;4080;42.676;23.372;2023-07-31T04:42:08;24.83;;;22.43;;
8074;SDS011;4080;42.676;23.372;2023-07-31T04:44:35;24.87;;;22.50;;
8074;SDS011;4080;42.676;23.372;2023-07-31T04:47:02;26.03;;;23.37;;
8074;SDS011;4080;42.676;23.372;2023-07-31T04:49:29;25.03;;;22.20;;
8074;SDS011;4080;42.676;23.372;2023-07-31T04:51:57;25.57;;;22.93;;
8074;SDS011;4080;42.676;23.372;2023-07-31T04:54:24;24.47;;;21.97;;
8074;SDS011;4080;42.676;23.372;2023-07-31T04:56:50;23.30;;;21.10;;
8074;SDS011;4080;42.676;23.372;2023-07-31T04:59:17;24.60;;;22.10;;
8074;SDS011;4080;42.676;23.372;2023-07-31T05:01:44;24.50;;;22.00;;
8074;SDS011;4080;42.676;23.372;2023-07-31T05:04:12;23.47;;;21.20;;
8074;SDS011;4080;42.676;23.372;2023-07-31T05:06:39;23.63;;;21.23;;
8074;SDS011;4080;42.676;23.372;2023-07-31T05:09:07;23.97;;;21.47;;
8074;SDS011;4080;42.676;23.372;2023-07-31T05:11:34;23.40;;;21.27;;
8074;SDS011;4080;42.676;23.372;2023-07-31T05:14:01;22.27;;;19.93;;
8074;SDS011;4080;42.676;23.372;2023-07-31T05:16:27;22.00;;;19.90;;
8074;SDS011;4080;42.676;23.372;2023-07-31T05:18:54;22.43;;;20.23;;
8074;SDS011;4080;42.676;23.372;2023-07-31T05:21:21;21.83;;;19.80;;
8074;SDS011;4080;42.676;23.372;2023-07-31T05:23:48;20.47;;;18.37;;
8074;SDS011;4080;42.676;23.372;2023-07-31T05:26:16;20.10;;;18.13;;
8074;SDS011;4080;42.676;23.372;2023-07-31T05:28:43;22.07;;;20.07;;
8074;SDS011;4080;42.676;23.372;2023-07-31T05:31:10;19.17;;;17.53;;
8074;SDS011;4080;42.676;23.372;2023-07-31T05:33:37;18.03;;;16.43;;
8074;SDS011;4080;42.676;23.372;2023-07-31T05:36:03;17.77;;;16.13;;
8074;SDS011;4080;42.676;23.372;2023-07-31T05:38:30;16.60;;;15.17;;
8074;SDS011;4080;42.676;23.372;2023-07-31T05:40:57;16.50;;;15.10;;
8074;SDS011;4080;42.676;23.372;2023-07-31T05:43:25;16.77;;;15.17;;
8074;SDS011;4080;42.676;23.372;2023-07-31T05:45:52;15.60;;;14.20;;
8074;SDS011;4080;42.676;23.372;2023-07-31T05:48:18;16.30;;;14.67;;
8074;SDS011;4080;42.676;23.372;2023-07-31T05:50:45;15.50;;;14.10;;
8074;SDS011;4080;42.676;23.372;2023-07-31T05:53:12;13.97;;;12.77;;
8074;SDS011;4080;42.676;23.372;2023-07-31T05:55:39;12.30;;;11.30;;
8074;SDS011;4080;42.676;23.372;2023-07-31T05:58:06;13.37;;;12.27;;
8074;SDS011;4080;42.676;23.372;2023-07-31T06:00:34;11.93;;;10.83;;
8074;SDS011;4080;42.676;23.372;2023-07-31T06:03:01;11.80;;;10.67;;
8074;SDS011;4080;42.676;23.372;2023-07-31T06:05:28;12.00;;;10.80;;
8074;SDS011;4080;42.676;23.372;2023-07-31T06:07:55;12.17;;;11.07;;
8074;SDS011;4080;42.676;23.372;2023-07-31T06:10:22;10.90;;;9.90;;
8074;SDS011;4080;42.676;23.372;2023-07-31T06:12:48;10.37;;;9.37;;
8074;SDS011;4080;42.676;23.372;2023-07-31T06:15:15;10.30;;;9.40;;
8074;SDS011;4080;42.676;23.372;2023-07-31T06:17:44;10.33;;;9.27;;
8074;SDS011;4080;42.676;23.372;2023-07-31T06:20:11;10.50;;;9.43;;
8074;SDS011;4080;42.676;23.372;2023-07-31T06:22:38;10.83;;;8.63;;
8074;SDS011;4080;42.676;23.372;2023-07-31T06:25:05;8.97;;;8.27;;
8074;SDS011;4080;42.676;23.372;2023-07-31T06:27:32;9.03;;;8.23;;
8074;SDS011;4080;42.676;23.372;2023-07-31T06:29:59;7.40;;;6.80;;
8074;SDS011;4080;42.676;23.372;2023-07-31T06:32:25;7.63;;;6.93;;
8074;SDS011;4080;42.676;23.372;2023-07-31T06:34:53;7.17;;;6.53;;
8074;SDS011;4080;42.676;23.372;2023-07-31T06:37:20;7.30;;;6.60;;
8074;SDS011;4080;42.676;23.372;2023-07-31T06:39:47;6.77;;;6.17;;
8074;SDS011;4080;42.676;23.372;2023-07-31T06:42:13;6.80;;;6.00;;
8074;SDS011;4080;42.676;23.372;2023-07-31T06:44:40;6.80;;;6.20;;
8074;SDS011;4080;42.676;23.372;2023-07-31T06:47:07;7.60;;;5.93;;
8074;SDS011;4080;42.676;23.372;2023-07-31T06:49:33;5.97;;;5.47;;
8074;SDS011;4080;42.676;23.372;2023-07-31T06:52:01;5.90;;;5.40;;
8074;SDS011;4080;42.676;23.372;2023-07-31T06:54:28;6.00;;;5.50;;
8074;SDS011;4080;42.676;23.372;2023-07-31T06:56:55;5.97;;;5.23;;
8074;SDS011;4080;42.676;23.372;2023-07-31T06:59:22;5.97;;;5.33;;
8074;SDS011;4080;42.676;23.372;2023-07-31T07:01:49;6.70;;;5.13;;
8074;SDS011;4080;42.676;23.372;2023-07-31T07:04:15;5.67;;;5.17;;
8074;SDS011;4080;42.676;23.372;2023-07-31T07:06:42;5.37;;;4.97;;
8074;SDS011;4080;42.676;23.372;2023-07-31T07:09:10;7.03;;;4.57;;
8074;SDS011;4080;42.676;23.372;2023-07-31T07:11:37;6.53;;;4.60;;
8074;SDS011;4080;42.676;23.372;2023-07-31T07:14:04;4.80;;;4.47;;
8074;SDS011;4080;42.676;23.372;2023-07-31T07:16:30;5.33;;;4.83;;
8074;SDS011;4080;42.676;23.372;2023-07-31T07:18:57;5.20;;;4.80;;
8074;SDS011;4080;42.676;23.372;2023-07-31T07:21:24;5.17;;;4.67;;
8074;SDS011;4080;42.676;23.372;2023-07-31T07:23:50;8.37;;;4.93;;
8074;SDS011;4080;42.676;23.372;2023-07-31T07:26:18;7.80;;;4.73;;
8074;SDS011;4080;42.676;23.372;2023-07-31T07:28:45;4.80;;;4.40;;
8074;SDS011;4080;42.676;23.372;2023-07-31T07:31:12;4.50;;;4.10;;
8074;SDS011;4080;42.676;23.372;2023-07-31T07:33:39;4.97;;;4.47;;
8074;SDS011;4080;42.676;23.372;2023-07-31T07:36:05;5.60;;;5.10;;
8074;SDS011;4080;42.676;23.372;2023-07-31T07:38:34;5.10;;;4.70;;
8074;SDS011;4080;42.676;23.372;2023-07-31T07:41:01;4.97;;;4.57;;
8074;SDS011;4080;42.676;23.372;2023-07-31T07:43:29;6.57;;;4.30;;
8074;SDS011;4080;42.676;23.372;2023-07-31T07:45:56;9.70;;;5.17;;
8074;SDS011;4080;42.676;23.372;2023-07-31T07:48:23;4.90;;;4.40;;
8074;SDS011;4080;42.676;23.372;2023-07-31T07:50:50;4.93;;;4.50;;
8074;SDS011;4080;42.676;23.372;2023-07-31T07:53:16;4.80;;;4.20;;
8074;SDS011;4080;42.676;23.372;2023-07-31T07:55:43;4.60;;;4.20;;
8074;SDS011;4080;42.676;23.372;2023-07-31T07:58:10;6.33;;;4.10;;
8074;SDS011;4080;42.676;23.372;2023-07-31T08:00:38;4.33;;;3.93;;
8074;SDS011;4080;42.676;23.372;2023-07-31T08:03:05;7.53;;;4.20;;
8074;SDS011;4080;42.676;23.372;2023-07-31T08:05:32;5.67;;;4.43;;
8074;SDS011;4080;42.676;23.372;2023-07-31T08:07:59;4.40;;;4.00;;
8074;SDS011;4080;42.676;23.372;2023-07-31T08:10:26;5.13;;;4.30;;
8074;SDS011;4080;42.676;23.372;2023-07-31T08:12:52;5.47;;;4.17;;
8074;SDS011;4080;42.676;23.372;2023-07-31T08:15:19;5.33;;;4.13;;
8074;SDS011;4080;42.676;23.372;2023-07-31T08:17:47;5.80;;;3.97;;
8074;SDS011;4080;42.676;23.372;2023-07-31T08:20:14;4.73;;;3.80;;
8074;SDS011;4080;42.676;23.372;2023-07-31T08:22:41;4.80;;;4.40;;
8074;SDS011;4080;42.676;23.372;2023-07-31T08:25:08;5.37;;;4.10;;
8074;SDS011;4080;42.676;23.372;2023-07-31T08:27:34;4.87;;;3.80;;
8074;SDS011;4080;42.676;23.372;2023-07-31T08:30:01;5.07;;;3.93;;
8074;SDS011;4080;42.676;23.372;2023-07-31T08:32:28;6.00;;;4.47;;
8074;SDS011;4080;42.676;23.372;2023-07-31T08:34:56;4.03;;;3.60;;
8074;SDS011;4080;42.676;23.372;2023-07-31T08:37:23;4.20;;;3.80;;
8074;SDS011;4080;42.676;23.372;2023-07-31T08:39:49;4.20;;;3.90;;
8074;SDS011;4080;42.676;23.372;2023-07-31T08:42:16;4.53;;;4.07;;
8074;SDS011;4080;42.676;23.372;2023-07-31T08:44:43;4.70;;;3.90;;
8074;SDS011;4080;42.676;23.372;2023-07-31T08:47:10;5.63;;;4.20;;
8074;SDS011;4080;42.676;23.372;2023-07-31T08:49:38;4.73;;;4.03;;
8074;SDS011;4080;42.676;23.372;2023-07-31T08:52:08;4.30;;;3.93;;
8074;SDS011;4080;42.676;23.372;2023-07-31T08:54:35;5.70;;;4.10;;
8074;SDS011;4080;42.676;23.372;2023-07-31T08:57:01;4.60;;;4.20;;
8074;SDS011;4080;42.676;23.372;2023-07-31T08:59:30;4.67;;;4.20;;
8074;SDS011;4080;42.676;23.372;2023-07-31T09:01:58;4.83;;;4.43;;
8074;SDS011;4080;42.676;23.372;2023-07-31T09:04:29;8.10;;;4.30;;
8074;SDS011;4080;42.676;23.372;2023-07-31T09:06:57;4.90;;;3.87;;
8074;SDS011;4080;42.676;23.372;2023-07-31T09:09:28;6.47;;;4.10;;
8074;SDS011;4080;42.676;23.372;2023-07-31T09:11:55;6.27;;;3.80;;
8074;SDS011;4080;42.676;23.372;2023-07-31T09:14:23;4.73;;;3.90;;
8074;SDS011;4080;42.676;23.372;2023-07-31T09:16:51;5.70;;;3.60;;
8074;SDS011;4080;42.676;23.372;2023-07-31T09:19:26;4.60;;;4.20;;
8074;SDS011;4080;42.676;23.372;2023-07-31T09:21:53;4.23;;;3.80;;
8074;SDS011;4080;42.676;23.372;2023-07-31T09:24:32;3.87;;;3.57;;
8074;SDS011;4080;42.676;23.372;2023-07-31T09:27:00;6.13;;;4.20;;
8074;SDS011;4080;42.676;23.372;2023-07-31T09:29:28;4.63;;;4.07;;
8074;SDS011;4080;42.676;23.372;2023-07-31T09:31:55;4.47;;;3.93;;
8074;SDS011;4080;42.676;23.372;2023-07-31T09:34:28;4.97;;;3.87;;
8074;SDS011;4080;42.676;23.372;2023-07-31T09:36:58;5.80;;;5.30;;
8074;SDS011;4080;42.676;23.372;2023-07-31T09:39:27;6.40;;;5.57;;
8074;SDS011;4080;42.676;23.372;2023-07-31T09:41:57;4.33;;;4.03;;
8074;SDS011;4080;42.676;23.372;2023-07-31T09:44:36;5.03;;;4.27;;
8074;SDS011;4080;42.676;23.372;2023-07-31T09:47:05;4.73;;;4.33;;
8074;SDS011;4080;42.676;23.372;2023-07-31T09:49:32;4.70;;;4.20;;
8074;SDS011;4080;42.676;23.372;2023-07-31T09:51:59;4.47;;;4.07;;
8074;SDS011;4080;42.676;23.372;2023-07-31T09:54:26;4.53;;;4.13;;
8074;SDS011;4080;42.676;23.372;2023-07-31T09:56:54;3.87;;;3.53;;
8074;SDS011;4080;42.676;23.372;2023-07-31T09:59:24;6.90;;;3.93;;
8074;SDS011;4080;42.676;23.372;2023-07-31T10:01:51;3.87;;;3.57;;
8074;SDS011;4080;42.676;23.372;2023-07-31T10:04:21;4.73;;;3.43;;
8074;SDS011;4080;42.676;23.372;2023-07-31T10:06:53;4.60;;;3.70;;
8074;SDS011;4080;42.676;23.372;2023-07-31T10:09:20;6.00;;;3.17;;
8074;SDS011;4080;42.676;23.372;2023-07-31T10:11:51;3.70;;;3.40;;
8074;SDS011;4080;42.676;23.372;2023-07-31T10:14:24;3.97;;;3.10;;
8074;SDS011;4080;42.676;23.372;2023-07-31T10:16:53;3.10;;;2.80;;
8074;SDS011;4080;42.676;23.372;2023-07-31T10:19:21;4.33;;;3.00;;
8074;SDS011;4080;42.676;23.372;2023-07-31T10:21:48;3.93;;;3.17;;
8074;SDS011;4080;42.676;23.372;2023-07-31T10:24:15;3.20;;;2.90;;
8074;SDS011;4080;42.676;23.372;2023-07-31T10:26:42;4.93;;;2.97;;
8074;SDS011;4080;42.676;23.372;2023-07-31T10:29:14;3.10;;;2.80;;
8074;SDS011;4080;42.676;23.372;2023-07-31T10:31:44;3.03;;;2.80;;
8074;SDS011;4080;42.676;23.372;2023-07-31T10:34:11;4.47;;;3.27;;
8074;SDS011;4080;42.676;23.372;2023-07-31T10:36:39;4.67;;;2.90;;
8074;SDS011;4080;42.676;23.372;2023-07-31T10:39:06;3.30;;;3.00;;
8074;SDS011;4080;42.676;23.372;2023-07-31T10:42:09;3.90;;;2.77;;
8074;SDS011;4080;42.676;23.372;2023-07-31T10:44:38;3.03;;;2.83;;
8074;SDS011;4080;42.676;23.372;2023-07-31T10:47:14;5.33;;;2.70;;
8074;SDS011;4080;42.676;23.372;2023-07-31T10:49:40;4.17;;;3.13;;
8074;SDS011;4080;42.676;23.372;2023-07-31T10:52:12;4.40;;;2.73;;
8074;SDS011;4080;42.676;23.372;2023-07-31T10:54:39;3.20;;;2.87;;
8074;SDS011;4080;42.676;23.372;2023-07-31T10:57:18;3.30;;;3.10;;
8074;SDS011;4080;42.676;23.372;2023-07-31T10:59:47;3.27;;;2.97;;
8074;SDS011;4080;42.676;23.372;2023-07-31T11:02:23;3.33;;;2.53;;
8074;SDS011;4080;42.676;23.372;2023-07-31T11:05:05;2.97;;;2.77;;
8074;SDS011;4080;42.676;23.372;2023-07-31T11:07:45;3.03;;;2.80;;
8074;SDS011;4080;42.676;23.372;2023-07-31T11:10:15;2.80;;;2.60;;
8074;SDS011;4080;42.676;23.372;2023-07-31T11:12:45;3.10;;;2.80;;
8074;SDS011;4080;42.676;23.372;2023-07-31T11:15:14;4.03;;;2.63;;
8074;SDS011;4080;42.676;23.372;2023-07-31T11:17:41;2.83;;;2.50;;
8074;SDS011;4080;42.676;23.372;2023-07-31T11:20:08;2.70;;;2.50;;
8074;SDS011;4080;42.676;23.372;2023-07-31T11:22:35;4.47;;;2.50;;
8074;SDS011;4080;42.676;23.372;2023-07-31T11:25:02;4.47;;;2.70;;
8074;SDS011;4080;42.676;23.372;2023-07-31T11:27:29;2.77;;;2.57;;
8074;SDS011;4080;42.676;23.372;2023-07-31T11:30:00;3.97;;;2.73;;
8074;SDS011;4080;42.676;23.372;2023-07-31T11:32:28;3.93;;;2.77;;
8074;SDS011;4080;42.676;23.372;2023-07-31T11:34:55;3.93;;;2.63;;
8074;SDS011;4080;42.676;23.372;2023-07-31T11:37:22;3.13;;;2.60;;
8074;SDS011;4080;42.676;23.372;2023-07-31T11:39:58;4.47;;;2.60;;
8074;SDS011;4080;42.676;23.372;2023-07-31T11:42:25;3.33;;;2.60;;
8074;SDS011;4080;42.676;23.372;2023-07-31T11:44:52;2.77;;;2.57;;
8074;SDS011;4080;42.676;23.372;2023-07-31T11:47:19;5.30;;;2.63;;
8074;SDS011;4080;42.676;23.372;2023-07-31T11:49:48;2.77;;;2.57;;
8074;SDS011;4080;42.676;23.372;2023-07-31T11:52:15;3.57;;;2.90;;
8074;SDS011;4080;42.676;23.372;2023-07-31T11:54:44;4.60;;;3.43;;
8074;SDS011;4080;42.676;23.372;2023-07-31T11:57:12;3.63;;;3.33;;
8074;SDS011;4080;42.676;23.372;2023-07-31T11:59:40;3.70;;;3.40;;
8074;SDS011;4080;42.676;23.372;2023-07-31T12:02:07;3.90;;;3.57;;
8074;SDS011;4080;42.676;23.372;2023-07-31T12:04:34;3.43;;;3.23;;
8074;SDS011;4080;42.676;23.372;2023-07-31T12:07:03;3.83;;;3.10;;
8074;SDS011;4080;42.676;23.372;2023-07-31T12:09:30;4.77;;;3.30;;
8074;SDS011;4080;42.676;23.372;2023-07-31T12:11:57;4.13;;;3.83;;
8074;SDS011;4080;42.676;23.372;2023-07-31T12:14:25;3.90;;;3.37;;
8074;SDS011;4080;42.676;23.372;2023-07-31T12:16:54;4.80;;;4.00;;
8074;SDS011;4080;42.676;23.372;2023-07-31T12:19:21;4.10;;;3.70;;
8074;SDS011;4080;42.676;23.372;2023-07-31T12:21:48;4.90;;;4.00;;
8074;SDS011;4080;42.676;23.372;2023-07-31T12:24:19;4.00;;;3.70;;
8074;SDS011;4080;42.676;23.372;2023-07-31T12:26:46;6.80;;;4.27;;
8074;SDS011;4080;42.676;23.372;2023-07-31T12:29:13;5.67;;;4.50;;
8074;SDS011;4080;42.676;23.372;2023-07-31T12:31:40;5.50;;;5.00;;
8074;SDS011;4080;42.676;23.372;2023-07-31T12:34:15;52.50;;;39.83;;
8074;SDS011;4080;42.676;23.372;2023-07-31T12:36:43;5.80;;;5.30;;
8074;SDS011;4080;42.676;23.372;2023-07-31T12:39:10;6.00;;;5.50;;
8074;SDS011;4080;42.676;23.372;2023-07-31T12:41:38;7.03;;;6.43;;
8074;SDS011;4080;42.676;23.372;2023-07-31T12:44:05;7.43;;;5.67;;
8074;SDS011;4080;42.676;23.372;2023-07-31T12:46:32;6.50;;;5.90;;
8074;SDS011;4080;42.676;23.372;2023-07-31T12:48:59;6.87;;;6.27;;
8074;SDS011;4080;42.676;23.372;2023-07-31T12:51:26;6.00;;;5.40;;
8074;SDS011;4080;42.676;23.372;2023-07-31T12:53:52;5.53;;;5.13;;
8074;SDS011;4080;42.676;23.372;2023-07-31T12:56:19;7.47;;;5.67;;
8074;SDS011;4080;42.676;23.372;2023-07-31T12:58:47;8.70;;;7.87;;
8074;SDS011;4080;42.676;23.372;2023-07-31T13:01:14;6.93;;;6.30;;
8074;SDS011;4080;42.676;23.372;2023-07-31T13:03:40;6.70;;;6.20;;
8074;SDS011;4080;42.676;23.372;2023-07-31T13:06:07;7.60;;;6.87;;
8074;SDS011;4080;42.676;23.372;2023-07-31T13:08:34;7.30;;;6.70;;
8074;SDS011;4080;42.676;23.372;2023-07-31T13:11:00;8.33;;;7.53;;
8074;SDS011;4080;42.676;23.372;2023-07-31T13:13:27;7.10;;;6.50;;
8074;SDS011;4080;42.676;23.372;2023-07-31T13:15:56;8.73;;;7.70;;
8074;SDS011;4080;42.676;23.372;2023-07-31T13:18:23;7.60;;;6.90;;
8074;SDS011;4080;42.676;23.372;2023-07-31T13:20:50;8.57;;;7.07;;
8074;SDS011;4080;42.676;23.372;2023-07-31T13:23:17;6.93;;;6.23;;
8074;SDS011;4080;42.676;23.372;2023-07-31T13:25:43;6.77;;;6.10;;
8074;SDS011;4080;42.676;23.372;2023-07-31T13:28:10;6.40;;;5.80;;
8074;SDS011;4080;42.676;23.372;2023-07-31T13:30:37;6.37;;;5.77;;
8074;SDS011;4080;42.676;23.372;2023-07-31T13:33:05;6.70;;;6.20;;
8074;SDS011;4080;42.676;23.372;2023-07-31T13:35:31;6.13;;;5.63;;
8074;SDS011;4080;42.676;23.372;2023-07-31T13:37:58;6.63;;;6.00;;
8074;SDS011;4080;42.676;23.372;2023-07-31T13:40:25;6.50;;;5.57;;
8074;SDS011;4080;42.676;23.372;2023-07-31T13:42:51;5.63;;;5.17;;
8074;SDS011;4080;42.676;23.372;2023-07-31T13:45:20;7.87;;;7.17;;
8074;SDS011;4080;42.676;23.372;2023-07-31T13:47:47;7.03;;;6.03;;
8074;SDS011;4080;42.676;23.372;2023-07-31T13:50:15;6.57;;;5.97;;
8074;SDS011;4080;42.676;23.372;2023-07-31T13:52:44;6.70;;;6.07;;
8074;SDS011;4080;42.676;23.372;2023-07-31T13:55:11;6.00;;;5.43;;
8074;SDS011;4080;42.676;23.372;2023-07-31T13:57:38;7.80;;;7.20;;
8074;SDS011;4080;42.676;23.372;2023-07-31T14:00:05;7.40;;;6.80;;
8074;SDS011;4080;42.676;23.372;2023-07-31T14:02:33;5.90;;;5.40;;
8074;SDS011;4080;42.676;23.372;2023-07-31T14:05:00;5.10;;;4.70;;
8074;SDS011;4080;42.676;23.372;2023-07-31T14:07:28;5.70;;;5.20;;
8074;SDS011;4080;42.676;23.372;2023-07-31T14:09:55;5.27;;;4.87;;
8074;SDS011;4080;42.676;23.372;2023-07-31T14:12:21;5.13;;;4.67;;
8074;SDS011;4080;42.676;23.372;2023-07-31T14:14:48;5.20;;;4.73;;
8074;SDS011;4080;42.676;23.372;2023-07-31T14:17:15;6.67;;;5.30;;
8074;SDS011;4080;42.676;23.372;2023-07-31T14:19:42;9.33;;;5.40;;
8074;SDS011;4080;42.676;23.372;2023-07-31T14:22:08;5.40;;;4.97;;
8074;SDS011;4080;42.676;23.372;2023-07-31T14:24:37;6.10;;;5.50;;
8074;SDS011;4080;42.676;23.372;2023-07-31T14:27:03;6.27;;;5.67;;
8074;SDS011;4080;42.676;23.372;2023-07-31T14:29:31;6.17;;;5.63;;
8074;SDS011;4080;42.676;23.372;2023-07-31T14:31:57;5.73;;;5.20;;
8074;SDS011;4080;42.676;23.372;2023-07-31T14:34:24;6.27;;;5.37;;
8074;SDS011;4080;42.676;23.372;2023-07-31T14:36:51;5.47;;;4.93;;
8074;SDS011;4080;42.676;23.372;2023-07-31T14:39:18;5.90;;;5.37;;
8074;SDS011;4080;42.676;23.372;2023-07-31T14:41:46;6.80;;;5.43;;
8074;SDS011;4080;42.676;23.372;2023-07-31T14:44:13;5.30;;;4.80;;
8074;SDS011;4080;42.676;23.372;2023-07-31T14:46:40;7.23;;;4.80;;
8074;SDS011;4080;42.676;23.372;2023-07-31T14:49:06;5.73;;;5.23;;
8074;SDS011;4080;42.676;23.372;2023-07-31T14:51:33;5.93;;;5.33;;
8074;SDS011;4080;42.676;23.372;2023-07-31T14:54:00;7.73;;;5.40;;
8074;SDS011;4080;42.676;23.372;2023-07-31T14:56:26;5.33;;;4.83;;